Time;durP1;ratioP1;P1;durP2;ratioP2;P2;SDS_P1;SDS_P2;PMS_P1;PMS_P2;Temp;Humidity;BMP_temperature;BMP_pressure;BME280_temperature;BME280_humidity;BME280_pressure;Samples;Min_cycle;Max_cycle;Signal;HPM_P1;HPM_P2
2023/01/24 00:00:06;;;;;;;0.20;0.20;;;;;;;0.46;100.00;100676.63;5113489;28;20224;-60
2023/01/24 00:02:33;;;;;;;0.20;0.17;;;;;;;0.43;100.00;100687.53;5113485;28;20194;-61
2023/01/24 00:04:59;;;;;;;0.30;0.30;;;;;;;0.32;100.00;100679.25;5113341;28;20221;-61
2023/01/24 00:07:26;;;;;;;0.20;0.20;;;;;;;0.31;100.00;100687.59;5113277;28;20197;-61
2023/01/24 00:09:53;;;;;;;0.20;0.20;;;;;;;0.29;100.00;100685.94;5113260;28;20245;-61
2023/01/24 00:12:21;;;;;;;0.27;0.27;;;;;;;0.30;100.00;100697.69;5113135;28;20224;-60
2023/01/24 00:14:48;;;;;;;1.27;0.33;;;;;;;0.28;100.00;100676.72;5113007;28;20236;-60
2023/01/24 00:17:15;;;;;;;0.27;0.27;;;;;;;0.34;100.00;100691.78;5113235;28;20197;-61
2023/01/24 00:19:42;;;;;;;0.10;0.10;;;;;;;0.34;100.00;100682.56;5113026;28;20224;-60
2023/01/24 00:22:09;;;;;;;0.50;0.50;;;;;;;0.31;100.00;100687.59;5113299;28;20272;-61
2023/01/24 00:24:36;;;;;;;0.30;0.30;;;;;;;0.31;100.00;100696.84;5113535;28;20217;-61
2023/01/24 00:27:03;;;;;;;0.10;0.10;;;;;;;0.37;100.00;100696.81;5112869;28;20288;-60
2023/01/24 00:29:31;;;;;;;0.17;0.17;;;;;;;0.35;100.00;100693.47;5113398;28;20631;-60
2023/01/24 00:31:58;;;;;;;0.60;0.60;;;;;;;0.26;100.00;100688.47;5112889;28;20213;-61
2023/01/24 00:34:24;;;;;;;0.93;0.30;;;;;;;0.28;100.00;100692.66;5113270;28;20237;-60
2023/01/24 00:36:51;;;;;;;0.30;0.23;;;;;;;0.26;100.00;100689.31;5112733;28;20204;-61
2023/01/24 00:39:18;;;;;;;0.40;0.40;;;;;;;0.31;100.00;100699.34;5112587;28;20236;-61
2023/01/24 00:41:45;;;;;;;0.20;0.20;;;;;;;0.33;100.00;100696.00;5111731;28;20202;-60
2023/01/24 00:44:12;;;;;;;0.60;0.60;;;;;;;0.21;100.00;100696.88;5112628;28;20228;-61
2023/01/24 00:46:41;;;;;;;1.70;0.43;;;;;;;0.26;100.00;100706.06;5112914;28;20197;-60
2023/01/24 00:49:08;;;;;;;0.20;0.20;;;;;;;0.26;100.00;100693.50;5112792;28;20217;-61
2023/01/24 00:51:35;;;;;;;0.67;0.47;;;;;;;0.22;100.00;100708.59;5112866;28;20208;-60
2023/01/24 00:54:02;;;;;;;0.37;0.37;;;;;;;0.22;100.00;100693.50;5112513;28;20213;-60
2023/01/24 00:56:29;;;;;;;0.43;0.43;;;;;;;0.32;100.00;100704.41;5112568;28;20204;-61
2023/01/24 00:58:55;;;;;;;0.50;0.50;;;;;;;0.26;100.00;100693.50;5112436;28;20244;-60
2023/01/24 01:01:22;;;;;;;1.50;0.40;;;;;;;0.17;100.00;100695.22;5112259;28;20208;-60
2023/01/24 01:03:51;;;;;;;0.13;0.13;;;;;;;0.25;100.00;100696.88;5112419;28;20251;-60
2023/01/24 01:06:17;;;;;;;0.10;0.10;;;;;;;0.24;100.00;100717.84;5112069;28;20205;-60
2023/01/24 01:08:44;;;;;;;0.30;0.30;;;;;;;0.28;100.00;100712.78;5112176;28;20217;-60
2023/01/24 01:11:11;;;;;;;0.10;0.10;;;;;;;0.21;100.00;100704.44;5112182;28;20197;-60
2023/01/24 01:13:38;;;;;;;1.03;0.43;;;;;;;0.24;100.00;100712.81;5111911;28;20221;-60
2023/01/24 01:16:07;;;;;;;0.53;0.43;;;;;;;0.25;100.00;100717.00;5111902;28;20228;-61
2023/01/24 01:18:35;;;;;;;0.87;0.67;;;;;;;0.13;100.00;100701.09;5112541;28;20561;-61
2023/01/24 01:21:04;;;;;;;0.30;0.30;;;;;;;0.21;100.00;100711.97;5112087;28;20198;-60
2023/01/24 01:23:31;;;;;;;0.10;0.10;;;;;;;0.21;100.00;100711.97;5112416;28;20213;-61
2023/01/24 01:26:02;;;;;;;0.10;0.10;;;;;;;0.15;100.00;100704.47;5111815;28;20205;-60
2023/01/24 01:28:29;;;;;;;0.20;0.20;;;;;;;0.16;100.00;100696.06;5111919;28;20225;-60
2023/01/24 01:30:57;;;;;;;0.30;0.30;;;;;;;0.17;100.00;100697.72;5111674;28;20221;-60
2023/01/24 01:33:24;;;;;;;0.50;0.50;;;;;;;0.17;100.00;100694.38;5111626;28;20209;-60
2023/01/24 01:35:52;;;;;;;0.90;0.73;;;;;;;0.18;100.00;100691.88;5111596;28;20225;-61
2023/01/24 01:38:21;;;;;;;0.40;0.40;;;;;;;0.22;100.00;100693.50;5111668;28;20198;-60
2023/01/24 01:40:48;;;;;;;0.30;0.30;;;;;;;0.25;100.00;100691.84;5111608;28;20197;-60
2023/01/24 01:43:16;;;;;;;1.00;0.77;;;;;;;0.17;100.00;100686.81;5111342;28;20203;-60
2023/01/24 01:45:45;;;;;;;1.23;1.17;;;;;;;0.15;100.00;100699.44;5111824;28;20201;-61
2023/01/24 01:48:37;;;;;;;0.20;0.20;;;;;;;0.20;100.00;100701.91;5111391;28;20579;-61
2023/01/24 01:51:12;;;;;;;0.20;0.20;;;;;;;0.19;100.00;100706.09;5111380;28;20494;-60
2023/01/24 01:53:46;;;;;;;0.53;0.53;;;;;;;0.29;100.00;100703.53;5111363;28;20254;-60
2023/01/24 01:56:23;;;;;;;0.43;0.43;;;;;;;0.24;100.00;100706.09;5111310;28;20232;-60
2023/01/24 01:58:50;;;;;;;3.30;0.77;;;;;;;0.06;100.00;100698.59;5111199;28;20225;-61
2023/01/24 02:01:17;;;;;;;0.30;0.30;;;;;;;0.08;100.00;100695.25;5111240;28;20201;-61
2023/01/24 02:03:52;;;;;;;0.40;0.40;;;;;;;-0.04;100.00;100700.31;5111326;28;20209;-60
2023/01/24 02:06:42;;;;;;;0.40;0.40;;;;;;;0.00;100.00;100696.97;5110745;28;20196;-61
2023/01/24 02:09:11;;;;;;;1.30;0.60;;;;;;;-0.14;100.00;100693.66;5110991;28;20844;-61
2023/01/24 02:11:38;;;;;;;0.67;0.67;;;;;;;-0.09;100.00;100689.44;5110978;28;20204;-61
2023/01/24 02:17:02;;;;;;;0.70;0.70;;;;;;;-0.16;100.00;100680.25;5087960;28;20674;-61
2023/01/24 02:20:01;;;;;;;0.30;0.30;;;;;;;-0.17;100.00;100683.63;5105016;28;20713;-61
2023/01/24 02:22:38;;;;;;;0.73;0.43;;;;;;;-0.14;100.00;100681.09;5083403;28;20669;-60
2023/01/24 02:25:14;;;;;;;0.30;0.30;;;;;;;-0.14;100.00;100678.56;5110924;28;20611;-61
2023/01/24 02:27:42;;;;;;;1.33;1.23;;;;;;;-0.21;100.00;100681.94;5110665;28;20193;-60
2023/01/24 02:30:10;;;;;;;0.10;0.10;;;;;;;0.00;100.00;100676.84;5110837;28;20232;-61
2023/01/24 02:32:37;;;;;;;0.60;0.60;;;;;;;-0.18;100.00;100681.91;5109210;28;20197;-60
2023/01/24 02:35:05;;;;;;;2.37;0.30;;;;;;;-0.08;100.00;100691.13;5110317;28;20237;-61
2023/01/24 02:37:36;;;;;;;0.30;0.30;;;;;;;-0.14;100.00;100704.53;5110531;28;20204;-60
2023/01/24 02:40:08;;;;;;;0.20;0.20;;;;;;;-0.08;100.00;100698.66;5110492;28;20221;-60
2023/01/24 02:42:39;;;;;;;0.20;0.20;;;;;;;-0.08;100.00;100702.00;5110726;28;20204;-60
2023/01/24 02:45:11;;;;;;;0.20;0.20;;;;;;;-0.09;100.00;100707.03;5110279;28;20237;-60
2023/01/24 02:47:44;;;;;;;0.53;0.30;;;;;;;-0.09;100.00;100704.50;5110548;28;20204;-61
2023/01/24 02:50:12;;;;;;;0.53;0.53;;;;;;;-0.02;100.00;100703.69;5110544;28;20697;-61
2023/01/24 02:55:24;;;;;;;0.73;0.73;;;;;;;0.03;100.00;100711.19;5110184;28;20720;-60
2023/01/24 02:58:05;;;;;;;0.30;0.30;;;;;;;0.06;100.00;100716.19;5109986;28;20697;-60
2023/01/24 03:00:34;;;;;;;0.43;0.40;;;;;;;0.07;100.00;100713.69;5110089;28;20225;-60
2023/01/24 03:03:01;;;;;;;0.10;0.10;;;;;;;0.05;100.00;100717.06;5110104;28;20280;-61
2023/01/24 03:05:39;;;;;;;0.63;0.53;;;;;;;0.06;100.00;100714.56;5113239;28;20220;-61
2023/01/24 03:08:07;;;;;;;0.20;0.20;;;;;;;-0.02;100.00;100703.69;5116941;27;20203;-61
2023/01/24 03:10:34;;;;;;;0.20;0.20;;;;;;;-0.06;100.00;100712.03;5117061;27;20217;-61
2023/01/24 03:35:00;;;;;;;0.40;0.33;;;;;;;-0.17;100.00;100698.69;5116556;28;20212;-61
2023/01/24 03:40:13;;;;;;;0.40;0.40;;;;;;;-0.25;100.00;100697.03;5116820;28;20224;-61
2023/01/24 03:42:47;;;;;;;0.30;0.30;;;;;;;-0.33;100.00;100691.16;5116755;27;20197;-60
2023/01/24 03:45:16;;;;;;;0.60;0.60;;;;;;;-0.34;100.00;100697.03;5116827;28;20716;-60
2023/01/24 03:47:54;;;;;;;3.33;0.47;;;;;;;-0.35;100.00;100690.34;5116255;27;20193;-61
2023/01/24 03:53:07;;;;;;;0.50;0.33;;;;;;;-0.44;100.00;100690.34;5116591;28;20200;-60
2023/01/24 03:55:34;;;;;;;0.40;0.40;;;;;;;-0.40;100.00;100687.00;5116608;27;20486;-61
2023/01/24 03:58:01;;;;;;;0.20;0.20;;;;;;;-0.39;100.00;100685.31;5116358;27;20204;-60
2023/01/24 04:00:28;;;;;;;1.97;0.60;;;;;;;-0.38;100.00;100685.31;5116283;27;20217;-61
2023/01/24 04:02:56;;;;;;;0.30;0.30;;;;;;;-0.30;100.00;100693.66;5116222;27;20213;-60
2023/01/24 04:05:24;;;;;;;0.67;0.67;;;;;;;-0.36;100.00;100688.66;5116173;27;20225;-60
2023/01/24 04:07:51;;;;;;;0.27;0.27;;;;;;;-0.35;100.00;100687.84;5116109;27;20201;-60
2023/01/24 04:10:18;;;;;;;0.40;0.40;;;;;;;-0.34;100.00;100691.19;5116055;27;20217;-60
2023/01/24 04:12:45;;;;;;;1.73;0.77;;;;;;;-0.40;100.00;100691.19;5116319;27;20224;-61
2023/01/24 04:15:17;;;;;;;0.50;0.50;;;;;;;-0.35;100.00;100687.84;5116042;27;20232;-60
2023/01/24 04:17:44;;;;;;;0.20;0.20;;;;;;;-0.35;100.00;100680.31;5114005;27;20197;-61
2023/01/24 04:20:13;;;;;;;0.53;0.53;;;;;;;-0.38;100.00;100679.44;5112900;28;20236;-60
2023/01/24 04:22:40;;;;;;;0.30;0.30;;;;;;;-0.40;100.00;100684.50;5112843;28;20204;-60
2023/01/24 04:25:08;;;;;;;0.10;0.10;;;;;;;-0.38;100.00;100680.28;5113080;28;20225;-61
2023/01/24 04:27:36;;;;;;;1.27;0.77;;;;;;;-0.47;100.00;100685.31;5112799;28;20204;-61
2023/01/24 04:30:03;;;;;;;0.83;0.83;;;;;;;-0.47;100.00;100686.19;5113296;28;20217;-61
2023/01/24 04:32:30;;;;;;;0.33;0.33;;;;;;;-0.39;100.00;100681.13;5113020;28;20201;-60
2023/01/24 04:34:57;;;;;;;0.97;0.97;;;;;;;-0.43;100.00;100678.66;5112805;28;20323;-60
2023/01/24 04:37:25;;;;;;;0.93;0.80;;;;;;;-0.45;100.00;100688.69;5112766;28;20200;-61
2023/01/24 04:39:52;;;;;;;1.43;1.33;;;;;;;-0.42;100.00;100686.16;5112887;28;20213;-60
2023/01/24 04:42:19;;;;;;;0.20;0.20;;;;;;;-0.65;100.00;100691.22;5112537;28;20215;-60
2023/01/24 04:44:46;;;;;;;0.23;0.23;;;;;;;-0.51;100.00;100681.16;5112537;28;20217;-60
2023/01/24 04:47:13;;;;;;;1.57;0.63;;;;;;;-0.60;100.00;100683.69;5112503;28;20197;-61
2023/01/24 04:49:40;;;;;;;1.33;0.73;;;;;;;-0.39;100.00;100687.84;5112315;28;20221;-61
2023/01/24 04:52:07;;;;;;;0.73;0.50;;;;;;;-0.52;100.00;100684.53;5112581;28;20255;-61
2023/01/24 04:54:35;;;;;;;0.27;0.27;;;;;;;-0.65;100.00;100693.72;5112544;28;20594;-60
2023/01/24 04:57:02;;;;;;;0.80;0.80;;;;;;;-0.69;100.00;100687.88;5112225;28;20225;-61
2023/01/24 04:59:29;;;;;;;1.80;0.80;;;;;;;-0.62;100.00;100680.31;5112604;28;20489;-61
2023/01/24 05:01:56;;;;;;;0.43;0.43;;;;;;;-0.68;100.00;100671.94;5111983;28;20439;-60
2023/01/24 05:04:23;;;;;;;0.60;0.60;;;;;;;-0.66;100.00;100673.66;5112296;28;20483;-61
2023/01/24 05:06:50;;;;;;;0.20;0.20;;;;;;;-0.71;100.00;100687.03;5112001;28;20599;-60
2023/01/24 05:09:16;;;;;;;0.37;0.37;;;;;;;-0.74;100.00;100684.50;5111892;28;20209;-61
2023/01/24 05:11:45;;;;;;;0.67;0.67;;;;;;;-0.73;100.00;100693.75;5112079;28;20450;-60
2023/01/24 05:14:12;;;;;;;0.70;0.70;;;;;;;-0.82;100.00;100693.72;5112064;28;20700;-60
2023/01/24 05:16:39;;;;;;;0.60;0.57;;;;;;;-0.79;100.00;100697.91;5111777;28;20487;-60
2023/01/24 05:19:06;;;;;;;0.47;0.47;;;;;;;-0.73;100.00;100698.75;5111814;28;20509;-61
2023/01/24 05:21:33;;;;;;;0.20;0.20;;;;;;;-0.71;100.00;100701.25;5111881;28;20442;-61
2023/01/24 05:24:00;;;;;;;0.30;0.30;;;;;;;-0.83;100.00;100701.25;5111762;28;20471;-60
2023/01/24 05:26:27;;;;;;;0.80;0.80;;;;;;;-0.85;100.00;100711.28;5111928;28;20461;-60
2023/01/24 05:28:56;;;;;;;1.23;1.13;;;;;;;-0.79;100.00;100705.44;5111345;28;21014;-61
2023/01/24 05:31:22;;;;;;;0.83;0.40;;;;;;;-0.77;100.00;100707.13;5111573;28;20937;-60
2023/01/24 05:33:49;;;;;;;0.10;0.10;;;;;;;-0.82;100.00;100703.75;5111608;28;20501;-61
2023/01/24 05:36:19;;;;;;;0.83;0.70;;;;;;;-0.82;100.00;100706.28;5111394;28;20486;-59
2023/01/24 05:38:46;;;;;;;0.30;0.30;;;;;;;-0.77;100.00;100707.13;5111482;28;20229;-60
2023/01/24 05:41:16;;;;;;;0.40;0.40;;;;;;;-0.75;100.00;100710.47;5111259;28;20216;-60
2023/01/24 05:43:44;;;;;;;1.50;1.13;;;;;;;-0.97;100.00;100723.84;5111565;28;20266;-62
2023/01/24 05:46:15;;;;;;;1.23;1.13;;;;;;;-0.92;100.00;100717.16;5111247;28;20455;-60
2023/01/24 05:48:42;;;;;;;0.30;0.30;;;;;;;-0.96;100.00;100720.47;5111305;28;20225;-61
2023/01/24 05:51:11;;;;;;;0.40;0.30;;;;;;;-1.01;100.00;100719.66;5111129;28;20977;-60
2023/01/24 05:53:39;;;;;;;0.67;0.67;;;;;;;-0.99;100.00;100725.50;5111278;28;20213;-62
2023/01/24 05:56:12;;;;;;;0.43;0.43;;;;;;;-0.98;100.00;100725.53;5111144;28;20866;-62
2023/01/24 05:58:39;;;;;;;0.70;0.57;;;;;;;-0.96;100.00;100728.00;5111319;28;20470;-60
2023/01/24 06:01:09;;;;;;;0.20;0.20;;;;;;;-1.02;100.00;100733.03;5111178;28;20454;-62
2023/01/24 06:03:40;;;;;;;0.30;0.30;;;;;;;-1.04;100.00;100737.22;5111198;28;20463;-62
2023/01/24 06:06:08;;;;;;;0.40;0.40;;;;;;;-1.05;100.00;100745.56;5111081;28;20575;-62
2023/01/24 06:08:35;;;;;;;0.40;0.40;;;;;;;-1.10;100.00;100742.25;5110705;28;20475;-62
2023/01/24 06:11:04;;;;;;;1.50;1.37;;;;;;;-1.05;100.00;100743.06;5110934;28;21018;-60
2023/01/24 06:13:31;;;;;;;0.20;0.20;;;;;;;-1.10;100.00;100757.31;5110994;28;20475;-60
2023/01/24 06:16:02;;;;;;;1.87;1.23;;;;;;;-1.09;100.00;100764.81;5110652;28;20494;-62
2023/01/24 06:18:29;;;;;;;0.60;0.60;;;;;;;-0.92;100.00;100772.41;5110662;28;20455;-62
2023/01/24 06:20:58;;;;;;;0.43;0.43;;;;;;;-1.02;100.00;100768.16;5110710;28;20447;-62
2023/01/24 06:23:27;;;;;;;0.57;0.57;;;;;;;-0.94;100.00;100774.06;5110718;28;20885;-60
2023/01/24 06:25:54;;;;;;;0.63;0.63;;;;;;;-0.99;100.00;100775.72;5110601;28;20454;-60
2023/01/24 06:28:22;;;;;;;1.20;1.10;;;;;;;-0.99;100.00;100785.75;5110569;28;20455;-60
2023/01/24 06:31:00;;;;;;;0.30;0.30;;;;;;;-1.01;100.00;100782.41;5110460;28;20443;-61
2023/01/24 06:33:36;;;;;;;1.40;1.13;;;;;;;-0.95;100.00;100784.94;5110366;28;20457;-60
2023/01/24 06:36:24;;;;;;;0.20;0.20;;;;;;;-1.04;100.00;100784.94;5110372;28;20639;-60
2023/01/24 06:38:51;;;;;;;1.50;0.70;;;;;;;-0.99;100.00;100785.75;5110267;28;20459;-60
2023/01/24 06:41:19;;;;;;;1.13;1.00;;;;;;;-0.95;100.00;100792.47;5109680;28;20443;-60
2023/01/24 06:43:46;;;;;;;0.83;0.83;;;;;;;-0.95;100.00;100797.50;5110227;28;20990;-62
2023/01/24 06:46:14;;;;;;;1.80;1.07;;;;;;;-0.98;100.00;100802.50;5110754;28;20454;-61
2023/01/24 06:48:44;;;;;;;1.60;1.03;;;;;;;-0.91;100.00;100804.19;5110303;28;20474;-61
2023/01/24 06:51:14;;;;;;;1.57;1.30;;;;;;;-0.85;100.00;100809.22;5110485;28;20563;-62
2023/01/24 06:53:41;;;;;;;0.83;0.83;;;;;;;-1.03;100.00;100809.19;5110110;28;20467;-60
2023/01/24 06:56:08;;;;;;;0.90;0.57;;;;;;;-1.00;100.00;100814.22;5110259;28;20483;-62
2023/01/24 06:58:35;;;;;;;0.50;0.50;;;;;;;-0.91;100.00;100817.56;5110122;28;20990;-60
2023/01/24 07:01:02;;;;;;;0.83;0.77;;;;;;;-0.77;100.00;100821.81;5110206;28;20517;-62
2023/01/24 07:03:29;;;;;;;0.87;0.87;;;;;;;-0.91;100.00;100825.09;5109905;28;20451;-62
2023/01/24 07:05:56;;;;;;;1.03;0.50;;;;;;;-0.85;100.00;100823.44;5110104;28;20201;-60
2023/01/24 07:08:24;;;;;;;0.77;0.60;;;;;;;-0.92;100.00;100827.63;5109997;28;20209;-61
2023/01/24 07:10:51;;;;;;;0.10;0.10;;;;;;;-0.88;100.00;100818.41;5109830;28;20439;-62
2023/01/24 07:13:18;;;;;;;1.30;1.00;;;;;;;-0.73;100.00;100829.34;5110060;28;20455;-62
2023/01/24 07:15:44;;;;;;;0.63;0.30;;;;;;;-0.83;100.00;100832.66;5109712;28;20446;-62
2023/01/24 07:18:13;;;;;;;0.77;0.57;;;;;;;-0.72;100.00;100841.06;5109782;28;20619;-59
2023/01/24 07:20:40;;;;;;;0.97;0.97;;;;;;;-0.64;100.00;100832.69;5109928;28;20635;-60
2023/01/24 07:23:19;;;;;;;0.40;0.40;;;;;;;-0.62;100.00;100836.88;5109714;28;20947;-62
2023/01/24 07:25:48;;;;;;;0.60;0.60;;;;;;;-0.67;100.00;100836.03;5109777;28;20438;-60
2023/01/24 07:28:15;;;;;;;5.17;2.27;;;;;;;-0.71;100.00;100842.72;5109627;28;20462;-60
2023/01/24 07:30:44;;;;;;;1.07;0.83;;;;;;;-0.70;100.00;100844.44;5110327;28;20473;-60
2023/01/24 07:33:12;;;;;;;0.50;0.50;;;;;;;-0.65;100.00;100839.41;5109764;28;20461;-60
2023/01/24 07:35:39;;;;;;;1.20;0.37;;;;;;;-0.59;100.00;100841.91;5109923;28;20479;-60
2023/01/24 07:38:06;;;;;;;0.93;0.83;;;;;;;-0.62;100.00;100846.09;5109753;28;20574;-61
2023/01/24 07:40:33;;;;;;;0.47;0.47;;;;;;;-0.56;100.00;100844.44;5109724;28;20455;-62
2023/01/24 07:43:02;;;;;;;1.07;0.40;;;;;;;-0.57;100.00;100846.97;5109950;28;20474;-60
2023/01/24 07:45:30;;;;;;;0.20;0.20;;;;;;;-0.49;100.00;100852.84;5109606;28;20221;-61
2023/01/24 07:47:57;;;;;;;0.50;0.50;;;;;;;-0.50;100.00;100851.13;5109643;28;20764;-62
2023/01/24 07:50:24;;;;;;;0.87;0.87;;;;;;;-0.41;100.00;100853.66;5109429;28;20459;-60
2023/01/24 07:52:52;;;;;;;0.20;0.20;;;;;;;-0.34;100.00;100857.88;5113013;28;20201;-62
2023/01/24 07:55:19;;;;;;;0.60;0.50;;;;;;;-0.39;100.00;100863.72;5113321;28;20713;-61
2023/01/24 07:57:47;;;;;;;0.50;0.50;;;;;;;-0.52;100.00;100862.88;5113146;28;20240;-62
2023/01/24 08:00:17;;;;;;;0.57;0.57;;;;;;;-0.38;100.00;100867.91;5113424;28;20213;-60
2023/01/24 08:02:45;;;;;;;0.23;0.23;;;;;;;-0.45;100.00;100879.63;5113228;28;20443;-60
2023/01/24 08:05:12;;;;;;;0.40;0.40;;;;;;;-0.42;100.00;100871.25;5113212;28;20221;-60
2023/01/24 08:07:39;;;;;;;2.73;0.87;;;;;;;-0.35;100.00;100876.31;5113200;28;20209;-62
2023/01/24 08:10:07;;;;;;;0.67;0.63;;;;;;;-0.61;100.00;100872.88;5113122;28;20604;-61
2023/01/24 08:12:34;;;;;;;1.00;0.97;;;;;;;-0.44;100.00;100868.72;5112463;28;20197;-60
2023/01/24 08:15:01;;;;;;;0.53;0.53;;;;;;;-0.50;100.00;100871.25;5112983;28;20217;-60
2023/01/24 08:17:29;;;;;;;0.57;0.57;;;;;;;-0.27;100.00;100878.81;5112808;28;20225;-62
2023/01/24 08:19:56;;;;;;;0.83;0.83;;;;;;;-0.34;100.00;100874.63;5113170;28;20217;-60
2023/01/24 08:22:23;;;;;;;1.13;1.03;;;;;;;-0.35;100.00;100886.38;5112937;28;20194;-60
2023/01/24 08:24:50;;;;;;;0.40;0.40;;;;;;;-0.28;100.00;100883.00;5112677;28;20221;-60
2023/01/24 08:27:17;;;;;;;1.07;1.07;;;;;;;-0.37;100.00;100884.69;5112866;28;20196;-60
2023/01/24 08:29:43;;;;;;;0.70;0.40;;;;;;;-0.31;100.00;100888.03;5112921;28;20218;-62
2023/01/24 08:32:10;;;;;;;1.23;0.60;;;;;;;-0.27;100.00;100878.81;5112772;28;20223;-60
2023/01/24 08:34:38;;;;;;;1.17;1.10;;;;;;;-0.32;100.00;100876.31;5113060;28;20210;-62
2023/01/24 08:37:05;;;;;;;0.43;0.43;;;;;;;-0.24;100.00;100879.66;5112559;28;20244;-62
2023/01/24 08:39:32;;;;;;;1.37;1.20;;;;;;;-0.26;100.00;100881.34;5112924;28;20213;-62
2023/01/24 08:41:59;;;;;;;0.73;0.60;;;;;;;-0.26;100.00;100891.41;5112665;28;20669;-61
2023/01/24 08:44:26;;;;;;;0.70;0.67;;;;;;;-0.18;100.00;100890.56;5112806;28;20694;-61
2023/01/24 08:46:53;;;;;;;0.60;0.60;;;;;;;-0.14;100.00;100889.72;5112251;28;20203;-62
2023/01/24 08:49:20;;;;;;;0.30;0.30;;;;;;;-0.06;100.00;100893.06;5112766;28;20221;-60
2023/01/24 08:51:48;;;;;;;0.53;0.53;;;;;;;-0.09;100.00;100893.06;5112643;28;20189;-60
2023/01/24 08:54:15;;;;;;;0.50;0.50;;;;;;;-0.04;100.00;100901.47;5112578;28;20689;-60
2023/01/24 08:56:42;;;;;;;1.07;0.97;;;;;;;-0.08;100.00;100899.78;5112732;28;20240;-60
2023/01/24 08:59:09;;;;;;;1.10;0.93;;;;;;;0.06;100.00;100898.13;5112559;28;20213;-60
2023/01/24 09:01:36;;;;;;;0.40;0.40;;;;;;;0.00;100.00;100900.63;5112349;28;20201;-61
2023/01/24 09:04:04;;;;;;;3.03;1.40;;;;;;;0.09;100.00;100898.13;5111501;28;20213;-60
2023/01/24 09:06:31;;;;;;;1.50;0.80;;;;;;;-0.06;100.00;100898.09;5112436;28;20618;-61
2023/01/24 09:08:59;;;;;;;0.87;0.87;;;;;;;-0.15;100.00;100898.09;5112036;28;20264;-61
2023/01/24 09:11:26;;;;;;;0.40;0.40;;;;;;;0.06;100.00;100900.63;5112311;28;20197;-62
2023/01/24 09:13:53;;;;;;;0.83;0.70;;;;;;;0.07;100.00;100899.78;5112110;28;20258;-63
2023/01/24 09:16:20;;;;;;;0.93;0.70;;;;;;;0.07;100.00;100899.78;5111763;28;20213;-62
2023/01/24 09:18:47;;;;;;;1.03;0.93;;;;;;;0.07;100.00;100894.75;5112036;28;20237;-60
2023/01/24 09:21:13;;;;;;;3.60;1.10;;;;;;;0.18;100.00;100898.09;5111847;28;20208;-62
2023/01/24 09:23:40;;;;;;;0.67;0.67;;;;;;;0.08;100.00;100906.47;5111733;28;20217;-62
2023/01/24 09:26:09;;;;;;;0.50;0.50;;;;;;;0.06;100.00;100893.09;5111776;28;20193;-62
2023/01/24 09:28:36;;;;;;;0.77;0.77;;;;;;;0.23;100.00;100898.09;5111760;28;20709;-62
2023/01/24 09:31:03;;;;;;;1.30;0.87;;;;;;;0.36;100.00;100886.34;5111584;28;20194;-60
2023/01/24 09:33:30;;;;;;;0.97;0.37;;;;;;;0.21;100.00;100893.06;5111855;28;20205;-62
2023/01/24 09:35:58;;;;;;;0.53;0.40;;;;;;;0.11;100.00;100891.38;5111632;28;20211;-60
2023/01/24 09:38:27;;;;;;;0.47;0.47;;;;;;;0.19;100.00;100894.75;5111830;28;20601;-62
2023/01/24 09:41:04;;;;;;;0.87;0.83;;;;;;;0.21;100.00;100888.03;5111580;28;20205;-62
2023/01/24 09:43:44;;;;;;;0.20;0.20;;;;;;;0.28;100.00;100888.88;5111427;28;20228;-62
2023/01/24 09:46:29;;;;;;;5.67;1.23;;;;;;;0.19;100.00;100889.72;5111744;28;20238;-60
2023/01/24 09:49:06;;;;;;;1.20;0.97;;;;;;;0.31;100.00;100883.00;5111437;28;20228;-60
2023/01/24 09:51:37;;;;;;;0.20;0.20;;;;;;;0.32;100.00;100884.66;5111561;28;20212;-60
2023/01/24 09:54:06;;;;;;;0.60;0.60;;;;;;;0.36;100.00;100881.31;5111162;28;20221;-63
2023/01/24 09:56:36;;;;;;;1.13;1.03;;;;;;;0.24;100.00;100873.78;5111257;28;20201;-62
2023/01/24 09:59:23;;;;;;;1.10;0.70;;;;;;;0.26;100.00;100874.59;5111177;28;20229;-62
2023/01/24 10:01:52;;;;;;;0.83;0.83;;;;;;;0.40;100.00;100877.94;5111101;28;20227;-62
2023/01/24 10:04:23;;;;;;;0.30;0.30;;;;;;;0.39;100.00;100882.16;5111036;28;20709;-62
2023/01/24 10:07:34;;;;;;;1.17;1.07;;;;;;;0.44;100.00;100880.47;5111070;28;20907;-62
2023/01/24 10:10:11;;;;;;;0.83;0.70;;;;;;;0.43;100.00;100888.00;5104127;28;20225;-60
2023/01/24 10:12:48;;;;;;;0.30;0.30;;;;;;;0.38;100.00;100887.19;5110966;28;20208;-60
2023/01/24 10:15:27;;;;;;;0.83;0.63;;;;;;;0.44;100.00;100875.44;5110797;28;20217;-60
2023/01/24 10:18:06;;;;;;;0.57;0.57;;;;;;;0.65;100.00;100869.50;5110526;28;20233;-62
2023/01/24 10:20:49;;;;;;;0.40;0.40;;;;;;;0.63;100.00;100865.31;5110619;28;20209;-62
2023/01/24 10:23:19;;;;;;;0.60;0.60;;;;;;;0.63;100.00;100851.03;5110637;28;20201;-60
2023/01/24 10:25:51;;;;;;;0.60;0.57;;;;;;;0.48;100.00;100860.31;5110451;27;20197;-60
2023/01/24 10:28:24;;;;;;;0.40;0.40;;;;;;;0.52;100.00;100856.94;5110781;28;20236;-62
2023/01/24 10:30:59;;;;;;;0.63;0.63;;;;;;;0.67;100.00;100851.91;5110687;28;20230;-60
2023/01/24 10:33:32;;;;;;;2.70;1.37;;;;;;;0.64;100.00;100846.84;5110596;28;20193;-62
2023/01/24 10:36:03;;;;;;;1.03;0.97;;;;;;;0.76;100.00;100851.03;5110438;28;20193;-62
2023/01/24 10:38:30;;;;;;;0.70;0.70;;;;;;;0.63;100.00;100840.97;5110273;28;20701;-62
2023/01/24 10:41:13;;;;;;;1.60;1.17;;;;;;;0.73;100.00;100838.41;5110498;28;20205;-62
2023/01/24 10:43:40;;;;;;;1.33;1.23;;;;;;;0.78;100.00;100831.69;5110496;28;20556;-63
2023/01/24 10:46:20;;;;;;;0.77;0.77;;;;;;;0.98;100.00;100822.38;5110317;28;20201;-62
2023/01/24 10:48:50;;;;;;;0.67;0.67;;;;;;;0.85;100.00;100825.81;5110612;28;20272;-60
2023/01/24 10:51:19;;;;;;;0.83;0.70;;;;;;;0.81;100.00;100829.16;5110305;28;20189;-60
2023/01/24 10:53:46;;;;;;;0.67;0.60;;;;;;;0.92;100.00;100817.38;5110100;28;20217;-60
2023/01/24 10:56:16;;;;;;;1.30;0.63;;;;;;;0.89;100.00;100814.88;5110171;28;20201;-60
2023/01/24 10:58:55;;;;;;;0.37;0.37;;;;;;;0.95;100.00;100816.53;5109946;28;20233;-60
2023/01/24 11:01:25;;;;;;;0.47;0.47;;;;;;;1.08;100.00;100818.97;5110271;28;20201;-61
2023/01/24 11:03:54;;;;;;;1.37;0.80;;;;;;;0.81;100.00;100819.91;5109911;28;20225;-62
2023/01/24 11:06:29;;;;;;;0.50;0.50;;;;;;;0.92;100.00;100817.38;5110163;28;20205;-62
2023/01/24 11:09:03;;;;;;;2.63;1.03;;;;;;;1.04;100.00;100816.47;5110283;28;20221;-62
2023/01/24 11:11:32;;;;;;;0.30;0.30;;;;;;;1.04;100.00;100809.75;5110186;28;20209;-60
2023/01/24 11:14:01;;;;;;;0.70;0.70;;;;;;;1.15;100.00;100808.84;5109990;28;20228;-62
2023/01/24 11:16:34;;;;;;;0.57;0.57;;;;;;;1.10;100.00;100817.25;5109971;28;20201;-62
2023/01/24 11:19:04;;;;;;;0.57;0.57;;;;;;;1.02;100.00;100808.06;5110246;28;20240;-60
2023/01/24 11:21:32;;;;;;;1.53;1.43;;;;;;;1.06;100.00;100810.56;5110220;28;20376;-62
2023/01/24 11:24:02;;;;;;;0.43;0.43;;;;;;;1.11;100.00;100803.84;5110179;28;20217;-60
2023/01/24 11:26:30;;;;;;;1.57;1.47;;;;;;;1.15;100.00;100814.72;5111293;28;20590;-60
2023/01/24 11:28:59;;;;;;;0.83;0.83;;;;;;;1.10;100.00;100807.19;5114188;28;20232;-60
2023/01/24 11:31:38;;;;;;;0.40;0.40;;;;;;;1.30;100.00;100803.72;5114016;28;20748;-61
2023/01/24 11:34:30;;;;;;;0.47;0.47;;;;;;;1.15;100.00;100803.81;5114090;28;20227;-62
2023/01/24 11:37:07;;;;;;;1.20;0.97;;;;;;;1.18;100.00;100803.81;5113997;28;20193;-62
2023/01/24 11:39:42;;;;;;;1.23;1.03;;;;;;;1.04;100.00;100799.66;5114111;27;20229;-62
2023/01/24 11:42:18;;;;;;;0.60;0.60;;;;;;;1.22;100.00;100800.41;5113845;28;20193;-62
2023/01/24 11:44:59;;;;;;;1.13;1.00;;;;;;;1.28;100.00;100800.34;5113939;28;20795;-60
2023/01/24 11:47:34;;;;;;;5.37;1.50;;;;;;;1.34;100.00;100795.31;5113743;28;20205;-60
2023/01/24 11:50:26;;;;;;;2.40;1.20;;;;;;;0.87;100.00;100788.84;5113826;27;20716;-60
2023/01/24 11:53:04;;;;;;;3.03;1.53;;;;;;;0.89;100.00;100794.72;5113983;28;20201;-60
2023/01/24 11:55:42;;;;;;;1.40;1.07;;;;;;;0.85;100.00;100783.00;5113781;28;20232;-61
2023/01/24 11:58:31;;;;;;;2.73;0.97;;;;;;;0.89;100.00;100789.69;5113505;28;20229;-60
2023/01/24 12:01:09;;;;;;;1.43;0.60;;;;;;;0.80;100.00;100787.22;5114226;28;20208;-62
2023/01/24 12:03:53;;;;;;;3.27;1.63;;;;;;;0.93;100.00;100785.47;5113700;28;20217;-62
2023/01/24 12:06:33;;;;;;;0.60;0.47;;;;;;;0.97;100.00;100789.66;5113848;28;20193;-60